Time;durP1;ratioP1;P1;durP2;ratioP2;P2;SDS_P1;SDS_P2;PMS_P1;PMS_P2;Temp;Humidity;BMP_temperature;BMP_pressure;BME280_temperature;BME280_humidity;BME280_pressure;Samples;Min_cycle;Max_cycle;Signal;HPM_P1;HPM_P2
2021/12/09 00:00:43;;;;;;;8.43;6.30;;;;;;;1.46;100.00;99278.47;1634885;85;21203;-78
2021/12/09 00:03:06;;;;;;;8.18;6.97;;;;;;;1.47;100.00;99278.79;1600113;88;20976;-80
2021/12/09 00:05:31;;;;;;;7.50;5.90;;;;;;;1.45;100.00;99277.66;1615907;87;21112;-82
2021/12/09 00:07:57;;;;;;;5.97;5.35;;;;;;;1.45;100.00;99282.95;1610331;86;21142;-83
2021/12/09 00:10:25;;;;;;;5.05;4.55;;;;;;;1.42;100.00;99279.91;1633330;86;21051;-80
2021/12/09 00:12:52;;;;;;;6.53;5.40;;;;;;;1.41;100.00;99275.61;1604447;88;21622;-77
2021/12/09 00:15:20;;;;;;;5.92;4.92;;;;;;;1.42;100.00;99278.58;1638965;86;21032;-75
2021/12/09 00:17:48;;;;;;;5.70;5.10;;;;;;;1.42;100.00;99281.22;1628322;86;20973;-76
2021/12/09 00:20:15;;;;;;;6.75;5.12;;;;;;;1.40;100.00;99284.06;1621352;86;21496;-76
2021/12/09 00:22:42;;;;;;;6.03;5.35;;;;;;;1.41;100.00;99292.83;1663707;84;21095;-76
2021/12/09 00:25:09;;;;;;;6.55;5.55;;;;;;;1.42;100.00;99291.31;1664156;84;22204;-77
2021/12/09 00:27:35;;;;;;;6.47;5.53;;;;;;;1.44;100.00;99307.02;1672987;83;21059;-76
2021/12/09 00:30:04;;;;;;;6.25;5.28;;;;;;;1.41;100.00;99303.43;1674544;83;21031;-77
2021/12/09 00:32:31;;;;;;;7.33;6.47;;;;;;;1.41;100.00;99300.78;1676313;84;21039;-77
2021/12/09 00:34:57;;;;;;;8.35;6.47;;;;;;;1.43;100.00;99296.11;1679945;84;20975;-80
2021/12/09 00:37:30;;;;;;;7.87;5.62;;;;;;;1.44;100.00;99299.86;1680826;82;21325;-79
2021/12/09 00:39:52;;;;;;;7.70;4.92;;;;;;;1.46;100.00;99300.49;1698761;82;20904;-77
2021/12/09 00:42:20;;;;;;;9.95;5.78;;;;;;;1.43;100.00;99302.73;1691455;81;20965;-81
2021/12/09 00:44:47;;;;;;;9.25;7.08;;;;;;;1.41;100.00;99304.25;1654677;83;21073;-81
2021/12/09 00:47:17;;;;;;;8.33;6.62;;;;;;;1.37;100.00;99309.64;1623124;85;20957;-80
2021/12/09 00:49:46;;;;;;;8.25;6.47;;;;;;;1.37;100.00;99303.02;1633923;87;21170;-82
2021/12/09 00:52:14;;;;;;;8.13;6.70;;;;;;;1.38;100.00;99307.81;1589479;89;20948;-81
2021/12/09 00:54:42;;;;;;;7.65;5.47;;;;;;;1.40;100.00;99309.23;1663243;86;21036;-80
2021/12/09 00:57:11;;;;;;;6.22;5.50;;;;;;;1.46;100.00;99311.09;1617644;86;21514;-80
2021/12/09 00:59:38;;;;;;;7.65;6.08;;;;;;;1.41;100.00;99307.41;1651657;87;21061;-80
2021/12/09 01:02:06;;;;;;;9.53;7.03;;;;;;;1.39;100.00;99311.56;1663036;85;21072;-82
2021/12/09 01:04:32;;;;;;;7.78;5.72;;;;;;;1.36;100.00;99308.51;1637013;84;21020;-81
2021/12/09 01:06:59;;;;;;;6.85;5.78;;;;;;;1.37;100.00;99314.94;1659862;86;21002;-81
2021/12/09 01:09:28;;;;;;;6.75;4.65;;;;;;;1.34;100.00;99310.05;1647514;86;20984;-78
2021/12/09 01:11:59;;;;;;;6.15;5.12;;;;;;;1.35;100.00;99309.02;1658550;86;21088;-88
2021/12/09 01:14:25;;;;;;;5.92;4.53;;;;;;;1.36;100.00;99313.30;1641491;86;22175;-86
2021/12/09 01:16:53;;;;;;;5.62;5.12;;;;;;;1.36;100.00;99309.33;1628321;86;21004;-86
2021/12/09 01:19:19;;;;;;;5.72;4.83;;;;;;;1.37;100.00;99311.48;1662597;85;20925;-81
2021/12/09 01:21:46;;;;;;;5.47;4.83;;;;;;;1.36;100.00;99311.16;1658351;86;21573;-82
2021/12/09 01:24:12;;;;;;;5.25;4.75;;;;;;;1.36;100.00;99321.75;1665239;83;21070;-86
2021/12/09 01:26:39;;;;;;;5.65;4.58;;;;;;;1.35;100.00;99316.96;1719020;83;21495;-79
2021/12/09 01:29:15;;;;;;;6.72;4.55;;;;;;;1.31;100.00;99318.38;1719805;83;20932;-80
2021/12/09 01:31:38;;;;;;;4.65;4.25;;;;;;;1.30;100.00;99314.91;1694694;83;21095;-80
2021/12/09 01:34:07;;;;;;;6.08;4.97;;;;;;;1.34;100.00;99315.86;1633570;86;21008;-81
2021/12/09 01:36:38;;;;;;;5.97;5.22;;;;;;;1.29;100.00;99318.60;1619951;86;21029;-79
2021/12/09 01:39:08;;;;;;;4.85;4.30;;;;;;;1.30;100.00;99320.72;1647029;84;21820;-77
2021/12/09 01:41:35;;;;;;;;;;;;;;;1.29;100.00;99323.08;1615794;87;20947;-81
2021/12/09 01:44:02;;;;;;;5.03;4.53;;;;;;;1.27;100.00;99323.77;1673019;84;20526;-82
2021/12/09 01:46:28;;;;;;;6.20;5.33;;;;;;;1.29;100.00;99326.55;1608965;86;21080;-84
2021/12/09 01:48:55;;;;;;;5.53;4.85;;;;;;;1.31;100.00;99324.50;1622005;88;21614;-82
2021/12/09 01:51:21;;;;;;;6.90;5.65;;;;;;;1.31;100.00;99319.70;1660161;86;21157;-78
2021/12/09 01:53:48;;;;;;;4.83;4.40;;;;;;;1.34;100.00;99315.36;1619222;86;21544;-82
2021/12/09 01:56:22;;;;;;;5.40;4.80;;;;;;;1.37;100.00;99321.56;1633881;86;20952;-83
2021/12/09 01:58:51;;;;;;;5.50;4.65;;;;;;;1.39;100.00;99323.48;1684743;84;21059;-81
2021/12/09 02:01:17;;;;;;;5.37;4.55;;;;;;;1.38;100.00;99329.01;1671342;84;21575;-89
2021/12/09 02:03:45;;;;;;;4.70;4.30;;;;;;;1.34;100.00;99323.80;1695607;83;21868;-82
2021/12/09 02:06:11;;;;;;;6.95;4.78;;;;;;;1.34;100.00;99325.13;1726844;82;21007;-91
2021/12/09 02:08:38;;;;;;;8.85;6.42;;;;;;;1.33;100.00;99325.63;1725773;83;20951;-87
2021/12/09 02:11:04;;;;;;;4.90;4.40;;;;;;;1.33;100.00;99337.55;1642544;86;21076;-87
2021/12/09 02:13:30;;;;;;;5.42;4.90;;;;;;;1.33;100.00;99332.26;1650030;86;21096;-84
2021/12/09 02:15:56;;;;;;;5.60;4.60;;;;;;;1.35;100.00;99334.69;1665524;84;21834;-87
2021/12/09 02:18:23;;;;;;;7.72;5.20;;;;;;;1.36;100.00;99337.14;1705450;83;21027;-76
2021/12/09 02:21:16;;;;;;;5.92;4.95;;;;;;;1.35;100.00;99342.12;1669629;84;21022;-79
2021/12/09 02:23:45;;;;;;;5.83;5.22;;;;;;;1.35;100.00;99339.48;1669080;84;21062;-69
2021/12/09 02:26:12;;;;;;;6.55;5.83;;;;;;;1.37;100.00;99353.86;1677155;83;20967;-77
2021/12/09 02:28:39;;;;;;;5.70;4.75;;;;;;;1.38;100.00;99353.67;1696278;84;21140;-76
2021/12/09 02:31:05;;;;;;;5.78;5.17;;;;;;;1.35;100.00;99355.38;1696689;84;21003;-79
2021/12/09 02:33:32;;;;;;;5.20;4.55;;;;;;;1.33;100.00;99352.13;1669745;84;20971;-85
2021/12/09 02:36:00;;;;;;;5.75;5.12;;;;;;;1.31;100.00;99352.31;1651982;86;21019;-82
2021/12/09 02:38:27;;;;;;;6.00;5.00;;;;;;;1.34;100.00;99363.04;1684573;84;21078;-85
2021/12/09 02:40:56;;;;;;;6.67;5.50;;;;;;;1.33;100.00;99361.40;1637584;86;21671;-82
2021/12/09 02:43:27;;;;;;;4.70;4.17;;;;;;;1.31;100.00;99369.53;1683345;83;21028;-83
2021/12/09 02:45:55;;;;;;;6.35;5.55;;;;;;;1.33;100.00;99371.17;1668870;84;21037;-94
2021/12/09 02:48:22;;;;;;;6.80;5.95;;;;;;;1.29;100.00;99376.06;1696810;84;21643;-95
2021/12/09 02:50:48;;;;;;;9.03;7.05;;;;;;;1.31;100.00;99375.34;1697322;84;21094;-93
2021/12/09 02:53:15;;;;;;;7.50;5.47;;;;;;;1.31;100.00;99378.80;1696577;84;21131;-93
2021/12/09 02:55:42;;;;;;;6.10;5.10;;;;;;;1.38;100.00;99380.67;1688620;84;21565;-88
2021/12/09 02:58:10;;;;;;;7.10;5.85;;;;;;;1.38;100.00;99376.19;1667537;84;20984;-90
2021/12/09 03:00:56;;;;;;;7.40;5.87;;;;;;;1.39;100.00;99377.02;1698382;83;21226;-91
2021/12/09 03:03:23;;;;;;;7.62;5.60;;;;;;;1.36;100.00;99379.53;1708914;83;21295;-93
2021/12/09 03:05:53;;;;;;;9.35;7.92;;;;;;;1.35;100.00;99373.09;1708786;83;21045;-87
2021/12/09 03:08:25;;;;;;;8.65;6.45;;;;;;;1.33;100.00;99381.77;1718213;83;20999;-77
2021/12/09 03:10:48;;;;;;;10.45;8.40;;;;;;;1.33;100.00;99381.77;1678240;83;21109;-70
2021/12/09 03:13:15;;;;;;;11.15;7.47;;;;;;;1.29;100.00;99383.50;1682841;82;21003;-77
2021/12/09 03:15:44;;;;;;;9.43;8.05;;;;;;;1.32;100.00;99386.25;1706200;83;20966;-81
2021/12/09 03:18:10;;;;;;;10.68;8.20;;;;;;;1.37;100.00;99392.27;1681974;83;21052;-79
2021/12/09 03:20:37;;;;;;;8.80;7.90;;;;;;;1.33;100.00;99385.74;1677594;85;21065;-75
2021/12/09 03:23:03;;;;;;;10.60;7.72;;;;;;;1.31;100.00;99381.95;1677974;84;21079;-75
2021/12/09 03:25:30;;;;;;;10.40;8.83;;;;;;;1.31;100.00;99384.10;1678372;85;21073;-77
2021/12/09 03:27:56;;;;;;;11.43;8.25;;;;;;;1.31;100.00;99381.45;1679488;84;21130;-76
2021/12/09 03:30:25;;;;;;;7.05;6.35;;;;;;;1.34;100.00;99390.03;1678977;84;21070;-77
2021/12/09 03:32:54;;;;;;;9.13;6.95;;;;;;;1.33;100.00;99385.74;1671277;84;21037;-76
2021/12/09 03:35:20;;;;;;;10.08;8.53;;;;;;;1.30;100.00;99391.73;1675128;85;20997;-77
2021/12/09 03:37:47;;;;;;;9.03;7.47;;;;;;;1.28;100.00;99382.36;1688994;84;21046;-77
2021/12/09 03:40:14;;;;;;;8.48;6.10;;;;;;;1.28;100.00;99385.83;1694089;84;21011;-79
2021/12/09 03:42:43;;;;;;;8.25;6.03;;;;;;;1.31;100.00;99389.40;1694130;84;21985;-79
2021/12/09 03:45:10;;;;;;;11.00;6.53;;;;;;;1.33;100.00;99395.84;1694098;84;20915;-78
2021/12/09 03:47:38;;;;;;;8.08;6.72;;;;;;;1.33;100.00;99397.16;1673065;84;21014;-78
2021/12/09 03:50:07;;;;;;;8.80;6.87;;;;;;;1.35;100.00;99400.41;1643752;83;21061;-82
2021/12/09 03:52:36;;;;;;;7.70;6.92;;;;;;;1.34;100.00;99396.16;1639701;84;21023;-81
2021/12/09 03:55:05;;;;;;;8.60;6.70;;;;;;;1.38;100.00;99399.22;1631321;84;21098;-83
2021/12/09 03:57:35;;;;;;;11.28;8.28;;;;;;;1.37;100.00;99396.25;1690863;84;20983;-81
2021/12/09 04:00:03;;;;;;;9.13;7.75;;;;;;;1.33;100.00;99397.16;1664580;86;21079;-81
2021/12/09 04:02:32;;;;;;;9.98;7.72;;;;;;;1.33;100.00;99397.16;1690477;83;21032;-83
2021/12/09 04:05:00;;;;;;;8.70;7.37;;;;;;;1.32;100.00;99394.19;1639950;86;21078;-81
2021/12/09 04:07:27;;;;;;;10.55;8.80;;;;;;;1.37;100.00;99398.90;1691879;84;21802;-84
2021/12/09 04:09:53;;;;;;;13.03;10.50;;;;;;;1.39;100.00;99401.64;1697855;84;20990;-84
2021/12/09 04:12:21;;;;;;;13.78;10.32;;;;;;;1.35;100.00;99400.41;1680524;84;21010;-83
2021/12/09 04:14:48;;;;;;;13.03;9.98;;;;;;;1.34;100.00;99400.13;1670148;86;21074;-79
2021/12/09 04:17:14;;;;;;;10.85;7.95;;;;;;;1.31;100.00;99401.32;1685492;83;21113;-85
2021/12/09 04:19:47;;;;;;;11.25;8.60;;;;;;;1.28;100.00;99403.05;1727447;83;21168;-83
2021/12/09 04:22:10;;;;;;;11.03;8.48;;;;;;;1.28;100.00;99396.43;1706323;83;21006;-85
2021/12/09 04:24:38;;;;;;;8.23;6.50;;;;;;;1.29;100.00;99397.25;1675271;82;20970;-83
2021/12/09 04:27:05;;;;;;;6.05;5.37;;;;;;;1.26;100.00;99402.42;1618953;87;21045;-88
2021/12/09 04:29:32;;;;;;;8.08;6.40;;;;;;;1.29;100.00;99401.22;1670029;86;21071;-87
2021/12/09 04:31:59;;;;;;;10.35;8.03;;;;;;;1.32;100.00;99407.44;1685682;83;21894;-83
2021/12/09 04:34:25;;;;;;;10.20;8.10;;;;;;;1.33;100.00;99405.61;1670439;85;21079;-85
2021/12/09 04:36:52;;;;;;;7.42;6.60;;;;;;;1.38;100.00;99411.95;1652306;85;21023;-85
2021/12/09 04:39:18;;;;;;;8.98;6.85;;;;;;;1.38;100.00;99403.19;1671457;84;21072;-85
2021/12/09 04:41:45;;;;;;;8.30;7.08;;;;;;;1.34;100.00;99415.20;1675911;84;21130;-82
2021/12/09 04:44:13;;;;;;;8.25;6.90;;;;;;;1.27;100.00;99413.33;1639259;87;21038;-89
2021/12/09 04:46:39;;;;;;;8.40;7.03;;;;;;;1.26;100.00;99409.55;1697518;83;21042;-86
2021/12/09 04:49:06;;;;;;;11.22;8.65;;;;;;;1.29;100.00;99411.31;1677131;84;20999;-87
2021/12/09 04:51:33;;;;;;;8.10;6.08;;;;;;;1.32;100.00;99411.41;1709492;83;20948;-84
2021/12/09 04:54:00;;;;;;;8.75;6.80;;;;;;;1.35;100.00;99418.95;1728174;83;21052;-85
2021/12/09 04:56:27;;;;;;;8.15;6.80;;;;;;;1.35;100.00;99425.58;1727957;83;21126;-86
2021/12/09 04:58:53;;;;;;;7.45;5.65;;;;;;;1.35;100.00;99429.55;1702536;82;21023;-85
2021/12/09 05:01:21;;;;;;;9.65;7.25;;;;;;;1.38;100.00;99438.45;1691237;83;21069;-84
2021/12/09 05:03:48;;;;;;;6.92;5.92;;;;;;;1.35;100.00;99439.33;1664072;86;21059;-82
2021/12/09 05:06:18;;;;;;;7.60;6.83;;;;;;;1.36;100.00;99445.77;1694351;84;21028;-89
2021/12/09 05:08:51;;;;;;;11.00;7.65;;;;;;;1.35;100.00;99448.60;1676712;83;21552;-88
2021/12/09 05:13:54;;;;;;;8.30;7.45;;;;;;;1.33;100.00;99450.14;1679494;84;21087;-88
2021/12/09 05:16:21;;;;;;;8.40;6.78;;;;;;;1.32;100.00;99445.85;1693702;84;21087;-86
2021/12/09 05:18:48;;;;;;;8.48;6.10;;;;;;;1.29;100.00;99446.25;1694089;84;21572;-84
2021/12/09 05:21:15;;;;;;;6.70;6.00;;;;;;;1.28;100.00;99447.27;1699606;83;21792;-84
2021/12/09 05:23:42;;;;;;;7.97;6.53;;;;;;;1.31;100.00;99452.16;1649840;86;21601;-81
2021/12/09 05:26:09;;;;;;;9.13;7.17;;;;;;;1.31;100.00;99453.48;1667038;86;21055;-82
2021/12/09 05:28:44;;;;;;;8.78;7.17;;;;;;;1.35;100.00;99464.50;1647217;86;21115;-81
2021/12/09 05:33:58;;;;;;;7.15;6.45;;;;;;;1.36;100.00;99459.52;1652261;83;21126;-86
2021/12/09 05:36:25;;;;;;;7.97;7.17;;;;;;;1.39;100.00;99466.55;1694555;83;21560;-86
2021/12/09 05:38:51;;;;;;;7.78;6.10;;;;;;;1.39;100.00;99465.23;1676271;84;22254;-86
2021/12/09 05:41:17;;;;;;;7.80;6.30;;;;;;;1.40;100.00;99468.20;1662922;85;21086;-86
2021/12/09 05:43:44;;;;;;;7.50;6.12;;;;;;;1.41;100.00;99474.32;1641632;87;21481;-90
2021/12/09 05:46:10;;;;;;;7.87;6.65;;;;;;;1.43;100.00;99473.13;1672900;83;21784;-89
2021/12/09 05:48:39;;;;;;;10.78;8.70;;;;;;;1.47;100.00;99474.87;1694615;84;21091;-81
2021/12/09 05:51:05;;;;;;;13.68;7.58;;;;;;;1.50;100.00;99473.96;1695872;84;21063;-88
2021/12/09 05:53:32;;;;;;;9.43;8.43;;;;;;;1.48;100.00;99483.95;1695416;84;21054;-90
2021/12/09 05:55:58;;;;;;;8.78;7.22;;;;;;;1.47;100.00;99484.96;1680963;84;21079;-91
2021/12/09 05:58:31;;;;;;;8.00;7.03;;;;;;;1.48;100.00;99486.61;1644444;85;21111;-89
2021/12/09 06:00:57;;;;;;;10.75;9.13;;;;;;;1.49;100.00;99480.27;1694015;82;21591;-87
2021/12/09 06:03:23;;;;;;;13.03;10.23;;;;;;;1.49;100.00;99486.07;1694705;84;21098;-90
2021/12/09 06:05:52;;;;;;;10.58;9.28;;;;;;;1.48;100.00;99494.55;1674389;84;21519;-89
2021/12/09 06:08:20;;;;;;;12.70;9.45;;;;;;;1.51;100.00;99499.95;1674659;85;21042;-86
2021/12/09 06:10:47;;;;;;;12.20;10.68;;;;;;;1.58;100.00;99503.47;1696711;82;21051;-87
2021/12/09 06:13:16;;;;;;;9.68;8.68;;;;;;;1.57;100.00;99503.16;1683444;84;21567;-87
2021/12/09 06:15:42;;;;;;;13.13;10.18;;;;;;;1.55;100.00;99514.45;1706480;82;21544;-89
2021/12/09 06:18:12;;;;;;;11.68;8.10;;;;;;;1.50;100.00;99508.91;1703173;84;21088;-90
2021/12/09 06:20:38;;;;;;;12.82;9.70;;;;;;;1.47;100.00;99522.56;1672924;84;21079;-82
2021/12/09 06:23:04;;;;;;;18.30;9.95;;;;;;;1.47;100.00;99523.39;1717535;82;22234;-83
2021/12/09 06:25:31;;;;;;;22.60;15.35;;;;;;;1.49;100.00;99527.14;1689257;82;21519;-88
2021/12/09 06:27:58;;;;;;;32.05;23.57;;;;;;;1.52;100.00;99533.39;1703294;84;21117;-84
2021/12/09 06:30:25;;;;;;;61.08;44.73;;;;;;;1.52;100.00;99541.34;1673592;84;21611;-85
2021/12/09 06:32:53;;;;;;;57.78;43.65;;;;;;;1.51;100.00;99537.05;1703570;84;21354;-84
2021/12/09 06:35:19;;;;;;;46.90;33.70;;;;;;;1.48;100.00;99535.63;1721992;82;22365;-82
2021/12/09 06:37:48;;;;;;;32.23;19.92;;;;;;;1.47;100.00;99543.77;1700930;84;21054;-81
2021/12/09 06:40:18;;;;;;;18.73;12.70;;;;;;;1.48;100.00;99544.91;1691651;84;21058;-86
2021/12/09 06:42:45;;;;;;;23.02;16.97;;;;;;;1.49;100.00;99543.87;1712185;82;21180;-89
2021/12/09 06:45:15;;;;;;;20.43;15.08;;;;;;;1.51;100.00;99550.30;1672586;84;21022;-84
2021/12/09 06:47:41;;;;;;;25.75;16.80;;;;;;;1.54;100.00;99556.53;1650442;84;21785;-84
2021/12/09 06:50:09;;;;;;;18.98;12.73;;;;;;;1.50;100.00;99556.11;1670868;84;21881;-87
2021/12/09 06:52:39;;;;;;;26.23;17.40;;;;;;;1.50;100.00;99549.98;1702250;84;20979;-84
2021/12/09 06:55:10;;;;;;;21.60;14.93;;;;;;;1.50;100.00;99556.61;1672257;84;21065;-82
2021/12/09 06:57:38;;;;;;;18.97;12.20;;;;;;;1.48;100.00;99561.30;1677761;84;21109;-82
2021/12/09 07:00:08;;;;;;;13.43;9.80;;;;;;;1.51;100.00;99558.25;1641570;86;21593;-82
2021/12/09 07:02:34;;;;;;;14.45;10.55;;;;;;;1.57;100.00;99555.66;1627722;83;21031;-79
2021/12/09 07:05:01;;;;;;;17.00;10.38;;;;;;;1.60;100.00;99561.05;1656149;84;21018;-78
2021/12/09 07:07:30;;;;;;;15.58;11.05;;;;;;;1.62;100.00;99567.81;1704028;83;21067;-78
2021/12/09 07:09:56;;;;;;;20.10;11.12;;;;;;;1.62;100.00;99563.02;1730083;83;21063;-78
2021/12/09 07:12:24;;;;;;;18.80;11.75;;;;;;;1.57;100.00;99577.36;1719825;83;21043;-79
2021/12/09 07:14:51;;;;;;;16.80;9.33;;;;;;;1.49;100.00;99571.69;1669798;84;21110;-79
2021/12/09 07:17:21;;;;;;;19.82;13.93;;;;;;;1.47;100.00;99575.06;1659877;84;21082;-79
2021/12/09 07:19:51;;;;;;;16.48;12.23;;;;;;;1.45;100.00;99577.07;1669803;86;21102;-80
2021/12/09 07:22:21;;;;;;;43.60;14.35;;;;;;;1.48;100.00;99574.55;1695359;84;21647;-81
2021/12/09 07:24:48;;;;;;;29.15;17.42;;;;;;;1.50;100.00;99573.84;1672925;83;21635;-78
2021/12/09 07:27:14;;;;;;;25.77;17.02;;;;;;;1.51;100.00;99585.58;1726914;83;21071;-78
2021/12/09 07:29:43;;;;;;;26.05;15.83;;;;;;;1.51;100.00;99591.38;1727116;82;20995;-79
2021/12/09 07:32:09;;;;;;;31.55;19.15;;;;;;;1.52;100.00;99587.72;1705893;83;21232;-77
2021/12/09 07:34:37;;;;;;;25.90;18.07;;;;;;;1.51;100.00;99585.58;1644539;84;21085;-78
2021/12/09 07:37:06;;;;;;;26.87;17.02;;;;;;;1.52;100.00;99591.20;1659805;86;21489;-78
2021/12/09 07:39:33;;;;;;;39.25;16.35;;;;;;;1.50;100.00;99599.01;1697917;83;21042;-78
2021/12/09 07:42:04;;;;;;;20.97;13.95;;;;;;;1.51;100.00;99603.30;1696168;84;21027;-83
2021/12/09 07:44:36;;;;;;;24.98;15.45;;;;;;;1.53;100.00;99593.34;1697489;83;21075;-81
2021/12/09 07:47:03;;;;;;;22.30;14.23;;;;;;;1.56;100.00;99595.09;1697759;83;21063;-81
2021/12/09 07:49:29;;;;;;;29.48;17.62;;;;;;;1.60;100.00;99604.79;1696623;82;21511;-78
2021/12/09 07:51:58;;;;;;;26.23;18.30;;;;;;;1.62;100.00;99606.25;1687134;84;21018;-84
2021/12/09 07:54:24;;;;;;;21.33;15.90;;;;;;;1.63;100.00;99605.21;1692701;84;22233;-80
2021/12/09 07:56:51;;;;;;;21.33;16.23;;;;;;;1.65;100.00;99609.00;1698039;84;21011;-82
2021/12/09 07:59:17;;;;;;;20.23;12.23;;;;;;;1.66;100.00;99604.02;1686723;84;21524;-81
2021/12/09 08:01:44;;;;;;;18.27;11.83;;;;;;;1.69;100.00;99607.09;1679337;85;21155;-82
2021/12/09 08:04:11;;;;;;;16.57;11.88;;;;;;;1.75;100.00;99608.97;1679724;85;21038;-79
2021/12/09 08:06:37;;;;;;;16.87;12.65;;;;;;;1.74;100.00;99613.13;1686077;83;21134;-81
2021/12/09 08:09:05;;;;;;;16.27;11.25;;;;;;;1.69;100.00;99613.72;1720226;83;21137;-84
2021/12/09 08:11:33;;;;;;;16.37;11.30;;;;;;;1.66;100.00;99608.00;1683917;84;21011;-85
2021/12/09 08:14:01;;;;;;;18.05;13.62;;;;;;;1.63;100.00;99611.84;1668322;84;21085;-87
2021/12/09 08:16:37;;;;;;;15.93;12.35;;;;;;;1.66;100.00;99616.77;1692555;84;21047;-82
2021/12/09 08:19:08;;;;;;;17.77;15.13;;;;;;;1.73;100.00;99620.77;1692749;83;21015;-80
2021/12/09 08:21:36;;;;;;;15.40;11.50;;;;;;;1.75;100.00;99619.58;1679645;83;21543;-81
2021/12/09 08:24:05;;;;;;;25.88;17.60;;;;;;;1.82;100.00;99620.95;1721958;83;21043;-85
2021/12/09 08:26:32;;;;;;;20.08;13.93;;;;;;;1.80;100.00;99615.52;1693575;84;21153;-86
2021/12/09 08:29:02;;;;;;;18.77;13.40;;;;;;;1.77;100.00;99619.39;1697109;84;21010;-85
2021/12/09 08:31:33;;;;;;;22.00;17.23;;;;;;;1.75;100.00;99627.53;1673143;84;21064;-83
2021/12/09 08:34:00;;;;;;;20.32;14.00;;;;;;;1.74;100.00;99619.77;1692176;83;21062;-85
2021/12/09 08:36:28;;;;;;;18.12;15.32;;;;;;;1.75;100.00;99618.76;1693264;84;21041;-81
2021/12/09 08:38:55;;;;;;;20.48;14.43;;;;;;;1.76;100.00;99617.75;1685763;83;21627;-78
2021/12/09 08:41:23;;;;;;;14.43;10.60;;;;;;;1.82;100.00;99627.58;1721555;83;21108;-78
2021/12/09 08:43:49;;;;;;;16.20;12.45;;;;;;;1.81;100.00;99625.12;1701282;83;21492;-82
2021/12/09 08:46:17;;;;;;;19.32;14.55;;;;;;;1.85;100.00;99625.86;1693107;84;21066;-87
2021/12/09 08:48:44;;;;;;;19.57;14.75;;;;;;;1.84;100.00;99625.54;1671053;84;21055;-90
2021/12/09 08:51:11;;;;;;;17.73;12.45;;;;;;;1.75;100.00;99624.88;1685257;83;21137;-91
2021/12/09 08:53:37;;;;;;;16.48;11.65;;;;;;;1.70;100.00;99622.50;1679059;83;20956;-83
2021/12/09 08:56:04;;;;;;;17.00;10.95;;;;;;;1.68;100.00;99625.33;1685690;83;21079;-85
2021/12/09 08:58:34;;;;;;;16.85;11.22;;;;;;;1.66;100.00;99630.03;1698241;82;21109;-82
2021/12/09 09:01:01;;;;;;;20.25;14.78;;;;;;;1.67;100.00;99625.05;1693700;83;21138;-83
2021/12/09 09:03:29;;;;;;;17.87;13.68;;;;;;;1.67;100.00;99624.22;1677070;83;21158;-84
2021/12/09 09:05:55;;;;;;;20.57;13.75;;;;;;;1.67;100.00;99632.99;1690507;84;21531;-84
2021/12/09 09:08:22;;;;;;;21.68;14.65;;;;;;;1.67;100.00;99627.69;1696556;84;20987;-85
2021/12/09 09:10:49;;;;;;;18.42;12.70;;;;;;;1.67;100.00;99630.34;1670464;84;21396;-86
2021/12/09 09:13:17;;;;;;;20.35;15.25;;;;;;;1.69;100.00;99629.63;1703689;83;21465;-86
2021/12/09 09:15:48;;;;;;;17.25;13.83;;;;;;;1.64;100.00;99624.59;1698692;83;21541;-85
2021/12/09 09:18:14;;;;;;;23.40;15.95;;;;;;;1.63;100.00;99626.42;1696325;83;21553;-86
2021/12/09 09:20:43;;;;;;;15.25;11.70;;;;;;;1.63;100.00;99630.92;1694848;84;21149;-88
2021/12/09 09:23:15;;;;;;;16.35;11.93;;;;;;;1.67;100.00;99625.55;1645420;84;20968;-85
2021/12/09 09:25:42;;;;;;;20.45;14.43;;;;;;;1.74;100.00;99624.56;1695514;84;21070;-85
2021/12/09 09:28:11;;;;;;;17.67;13.25;;;;;;;1.75;100.00;99622.23;1695824;84;21088;-85
2021/12/09 09:30:43;;;;;;;14.98;11.38;;;;;;;1.77;100.00;99621.22;1695516;84;21034;-85
2021/12/09 09:33:12;;;;;;;;;;;;;;;1.76;100.00;99621.73;1698204;83;21047;-87
2021/12/09 09:35:39;;;;;;;17.57;11.68;;;;;;;1.71;100.00;99621.48;1691696;84;20196;-89
2021/12/09 09:38:10;;;;;;;17.87;12.43;;;;;;;1.65;100.00;99621.75;1697701;83;21036;-88
2021/12/09 09:40:50;;;;;;;23.32;12.35;;;;;;;1.65;100.00;99624.41;1643774;86;21171;-85
2021/12/09 09:43:42;;;;;;;16.80;12.63;;;;;;;1.62;100.00;99638.06;1642477;86;21050;-86
2021/12/09 09:46:04;;;;;;;19.75;12.37;;;;;;;1.58;100.00;99630.16;1662195;86;21103;-87
2021/12/09 09:48:33;;;;;;;19.17;13.72;;;;;;;1.60;100.00;99628.14;1715996;83;21026;-88
2021/12/09 09:51:01;;;;;;;16.73;12.13;;;;;;;1.66;100.00;99631.85;1697611;83;21024;-86
2021/12/09 09:53:34;;;;;;;23.18;17.75;;;;;;;1.74;100.00;99625.89;1690176;84;21510;-86
2021/12/09 09:56:00;;;;;;;19.90;14.23;;;;;;;1.74;100.00;99622.41;1690095;84;21015;-87
2021/12/09 09:58:27;;;;;;;14.75;12.50;;;;;;;1.79;100.00;99625.30;1690241;84;21048;-87
2021/12/09 10:00:55;;;;;;;20.40;13.28;;;;;;;1.83;100.00;99622.56;1673956;83;21059;-85
2021/12/09 10:03:27;;;;;;;19.73;13.32;;;;;;;1.80;100.00;99615.02;1683963;82;21094;-82
2021/12/09 10:05:51;;;;;;;17.87;11.97;;;;;;;1.77;100.00;99617.25;1664799;86;21193;-83
2021/12/09 10:08:17;;;;;;;22.65;13.62;;;;;;;1.78;100.00;99621.52;1665032;84;21043;-81
2021/12/09 10:10:46;;;;;;;19.45;13.90;;;;;;;1.78;100.00;99618.36;1688461;83;21571;-88
2021/12/09 10:13:15;;;;;;;22.27;16.27;;;;;;;1.79;100.00;99619.17;1693972;83;21067;-84
2021/12/09 10:15:48;;;;;;;22.42;14.75;;;;;;;1.78;100.00;99625.48;1686640;83;21154;-81
2021/12/09 10:18:42;;;;;;;21.57;13.83;;;;;;;1.77;100.00;99622.05;1632009;85;21550;-83
2021/12/09 10:21:10;;;;;;;16.95;12.25;;;;;;;1.78;100.00;99617.03;1704076;81;21047;-82
2021/12/09 10:23:45;;;;;;;19.48;14.35;;;;;;;1.81;100.00;99627.27;1688472;83;20979;-84
2021/12/09 10:26:24;;;;;;;19.75;13.38;;;;;;;1.86;100.00;99624.03;1695326;83;21082;-82
2021/12/09 10:29:38;;;;;;;20.20;13.38;;;;;;;1.90;100.00;99623.94;1676343;84;21040;-80
2021/12/09 10:32:10;;;;;;;20.62;13.20;;;;;;;1.94;100.00;99624.68;1653779;85;21882;-83
2021/12/09 10:34:45;;;;;;;17.52;12.93;;;;;;;1.97;100.00;99626.93;1642017;86;21100;-83
2021/12/09 10:37:26;;;;;;;15.28;11.12;;;;;;;1.98;100.00;99629.08;1684146;83;20976;-77
2021/12/09 10:40:19;;;;;;;15.03;12.25;;;;;;;1.94;100.00;99631.31;1682901;85;21041;-77
2021/12/09 10:42:52;;;;;;;33.67;22.30;;;;;;;1.90;100.00;99638.02;1666659;85;21044;-79
2021/12/09 10:45:28;;;;;;;30.35;20.05;;;;;;;1.81;100.00;99637.88;1688738;84;21486;-78
2021/12/09 10:48:04;;;;;;;52.10;30.20;;;;;;;1.82;100.00;99631.56;1671179;84;21009;-82
2021/12/09 10:50:43;;;;;;;32.67;19.87;;;;;;;1.84;100.00;99640.13;1661840;83;21060;-79
2021/12/09 10:56:10;;;;;;;39.20;22.90;;;;;;;1.93;100.00;99644.76;1712009;83;21036;-80
2021/12/09 10:58:37;;;;;;;22.17;17.10;;;;;;;1.97;100.00;99646.00;1664349;84;21905;-83
2021/12/09 11:01:08;;;;;;;23.02;14.43;;;;;;;1.97;100.00;99642.84;1664830;86;21014;-82
2021/12/09 11:03:42;;;;;;;28.90;19.05;;;;;;;1.97;100.00;99644.67;1665076;86;21047;-87
2021/12/09 11:06:14;;;;;;;24.65;16.80;;;;;;;1.94;100.00;99645.90;1673667;83;21039;-85
2021/12/09 11:08:53;;;;;;;34.08;21.25;;;;;;;1.95;100.00;99642.23;1672155;84;21039;-87
2021/12/09 11:11:33;;;;;;;28.35;18.07;;;;;;;1.96;100.00;99637.75;1634766;87;21179;-87
2021/12/09 11:14:16;;;;;;;27.02;17.20;;;;;;;1.97;100.00;99643.34;1665353;86;21019;-81
2021/12/09 11:16:44;;;;;;;28.83;16.95;;;;;;;1.94;100.00;99645.08;1676846;83;21082;-80
2021/12/09 11:19:17;;;;;;;28.10;16.45;;;;;;;1.90;100.00;99644.66;1667384;84;21074;-75
2021/12/09 11:21:54;;;;;;;21.20;13.48;;;;;;;1.92;100.00;99640.49;1694315;83;21043;-76
2021/12/09 11:24:20;;;;;;;19.40;14.13;;;;;;;1.91;100.00;99642.83;1708717;83;21530;-87
2021/12/09 11:26:57;;;;;;;15.70;13.13;;;;;;;1.94;100.00;99646.41;1679051;83;21028;-83
2021/12/09 11:29:37;;;;;;;20.55;12.68;;;;;;;1.98;100.00;99643.66;1646612;86;21055;-85
2021/12/09 11:32:15;;;;;;;21.17;16.23;;;;;;;1.97;100.00;99642.02;1683628;83;21031;-79
2021/12/09 11:34:53;;;;;;;20.97;14.85;;;;;;;1.93;100.00;99646.08;1693199;83;21082;-91
2021/12/09 11:37:38;;;;;;;26.42;15.28;;;;;;;1.90;100.00;99639.35;1691942;84;22453;-93
2021/12/09 11:39:48;;;;;;;38.20;24.95;;;;;;;1.96;100.00;99648.37;1688273;84;21540;-88
2021/12/09 11:42:26;;;;;;;26.25;18.85;;;;;;;2.01;100.00;99641.97;1691380;84;20980;-86